createdAt,value
2023-05-02T00:02:33.068Z,8.98
2023-05-02T00:12:35.378Z,8.99
2023-05-02T00:22:37.849Z,8.34
2023-05-02T00:32:40.379Z,8.46
2023-05-02T00:42:42.445Z,8.31
2023-05-02T00:52:44.865Z,8.57
2023-05-02T01:03:22.952Z,8.78
2023-05-02T01:13:28.424Z,8.27
2023-05-02T01:24:11.007Z,8.70
2023-05-02T01:34:13.227Z,9.10
2023-05-02T01:44:17.077Z,8.75
2023-05-02T01:54:21.261Z,8.20
2023-05-02T02:04:23.825Z,7.43
2023-05-02T02:14:27.852Z,7.46
2023-05-02T02:24:30.799Z,8.03
2023-05-02T02:34:32.912Z,8.03
2023-05-02T02:44:44.160Z,8.23
2023-05-02T02:55:00.977Z,7.18
2023-05-02T03:05:04.568Z,8.17
2023-05-02T03:15:30.119Z,7.74
2023-05-02T03:25:33.031Z,8.13
2023-05-02T03:35:35.149Z,7.68
2023-05-02T03:45:37.881Z,8.07
2023-05-02T03:55:40.855Z,7.82
2023-05-02T04:05:45.653Z,7.94
2023-05-02T04:15:50.269Z,7.95
2023-05-02T04:25:56.592Z,8.11
2023-05-02T04:36:07.160Z,7.77
2023-05-02T04:46:10.582Z,7.89
2023-05-02T04:56:14.658Z,7.65
2023-05-02T05:06:17.624Z,7.33
2023-05-02T05:16:20.637Z,8.19
2023-05-02T05:26:25.195Z,8.01
2023-05-02T05:36:27.800Z,6.92
2023-05-02T05:46:29.934Z,6.49
2023-05-02T05:56:33.011Z,6.73
2023-05-02T06:06:48.379Z,7.04
2023-05-02T06:16:50.634Z,7.57
2023-05-02T06:26:52.714Z,7.34
2023-05-02T06:36:57.873Z,7.30
2023-05-02T06:47:00.177Z,7.98
2023-05-02T06:57:02.959Z,7.04
2023-05-02T07:07:05.249Z,7.92
2023-05-02T07:17:07.393Z,7.72
2023-05-02T07:27:10.240Z,7.68
2023-05-02T07:37:12.343Z,7.52
2023-05-02T07:47:14.363Z,7.87
2023-05-02T07:57:16.529Z,7.13
2023-05-02T08:07:18.842Z,6.88
2023-05-02T08:17:21.839Z,7.12
2023-05-02T08:27:23.920Z,6.94
2023-05-02T08:37:26.157Z,6.00
2023-05-02T08:47:29.979Z,6.12
2023-05-02T08:57:32.179Z,7.36
2023-05-02T09:07:46.463Z,7.27
2023-05-02T09:17:48.988Z,7.02
2023-05-02T09:27:57.711Z,7.45
2023-05-02T09:37:59.798Z,6.83
2023-05-02T09:48:02.741Z,7.52
2023-05-02T09:58:05.863Z,7.12
2023-05-02T10:08:11.671Z,7.35
2023-05-02T10:18:15.959Z,7.78
2023-05-02T10:28:18.406Z,7.45
2023-05-02T10:38:22.514Z,8.26
2023-05-02T10:48:27.661Z,7.81
2023-05-02T10:58:31.303Z,8.03
2023-05-02T11:08:33.417Z,7.72
2023-05-02T11:19:01.031Z,8.93
2023-05-02T11:29:03.370Z,8.26
2023-05-02T11:39:19.109Z,7.91
2023-05-02T11:49:21.466Z,8.36
2023-05-02T11:59:23.505Z,9.16
2023-05-02T12:09:25.562Z,9.23
2023-05-02T12:19:27.864Z,8.88
2023-05-02T12:29:43.254Z,9.45
2023-05-02T12:39:45.384Z,9.02
2023-05-02T12:49:52.337Z,7.39
2023-05-02T12:59:54.697Z,9.08
2023-05-02T13:09:56.732Z,9.35
2023-05-02T13:20:01.928Z,9.06
2023-05-02T13:30:08.439Z,10.13
2023-05-02T13:40:11.984Z,9.60
2023-05-02T13:50:14.016Z,9.11
2023-05-02T14:00:16.903Z,9.42
2023-05-02T14:10:18.887Z,9.88
2023-05-02T14:20:23.347Z,9.25
2023-05-02T14:30:25.461Z,10.12
2023-05-02T14:40:27.578Z,8.96
2023-05-02T14:50:29.888Z,10.88
2023-05-02T15:00:34.745Z,10.13
2023-05-02T15:10:38.064Z,10.21
2023-05-02T15:20:40.100Z,10.26
2023-05-02T15:30:42.248Z,10.70
2023-05-02T15:40:44.304Z,10.31
2023-05-02T15:50:47.183Z,10.52
2023-05-02T16:00:51.721Z,9.94
2023-05-02T16:10:54.470Z,9.03
2023-05-02T16:20:59.624Z,9.34
2023-05-02T16:31:11.037Z,9.67
2023-05-02T16:41:13.443Z,9.37
2023-05-02T16:51:15.596Z,10.07
2023-05-02T17:01:17.719Z,9.76
2023-05-02T17:11:21.882Z,9.20
2023-05-02T17:21:24.262Z,9.67
2023-05-02T17:31:26.387Z,9.06
2023-05-02T17:41:28.620Z,8.51
2023-05-02T17:51:31.991Z,8.61
2023-05-02T18:01:34.092Z,8.51
2023-05-02T18:11:36.359Z,8.04
2023-05-02T18:21:38.422Z,8.48
2023-05-02T18:31:41.867Z,8.82
2023-05-02T18:41:44.168Z,8.75
2023-05-02T18:51:46.587Z,8.46
2023-05-02T19:01:48.693Z,7.92
2023-05-02T19:11:50.890Z,7.93
2023-05-02T19:21:53.231Z,7.66
2023-05-02T19:31:55.364Z,7.40
2023-05-02T19:41:57.507Z,7.50
2023-05-02T19:51:59.530Z,7.12
2023-05-02T20:02:02.762Z,6.93
2023-05-02T20:12:05.261Z,7.11
2023-05-02T20:22:07.281Z,7.08
2023-05-02T20:32:09.382Z,6.66
2023-05-02T20:42:11.690Z,6.67
2023-05-02T20:52:15.422Z,6.70
2023-05-02T21:02:17.572Z,6.45
2023-05-02T21:12:19.605Z,5.86
2023-05-02T21:22:22.008Z,5.89
2023-05-02T21:32:25.815Z,6.12
2023-05-02T21:42:28.048Z,5.80
2023-05-02T21:52:31.648Z,5.64
2023-05-02T22:02:33.780Z,5.86
2023-05-02T22:12:35.843Z,5.08
2023-05-02T22:22:38.106Z,5.29
2023-05-02T22:32:41.259Z,5.02
2023-05-02T22:42:43.328Z,5.01
2023-05-02T22:52:46.492Z,4.67
2023-05-02T23:02:48.599Z,4.29
2023-05-02T23:12:50.773Z,4.46
2023-05-02T23:22:52.790Z,4.59
2023-05-02T23:32:54.864Z,4.40
2023-05-02T23:42:57.091Z,4.22
2023-05-02T23:52:59.349Z,4.13
